sensor_id;sensor_type;location;lat;lon;timestamp;P1;durP1;ratioP1;P2;durP2;ratioP2
51298;SDS011;37382;45.192;9.790;2023-04-24T00:02:16;6.70;;;4.70;;
51298;SDS011;37382;45.192;9.790;2023-04-24T00:04:44;6.30;;;4.90;;
51298;SDS011;37382;45.192;9.790;2023-04-24T00:07:16;7.15;;;4.50;;
51298;SDS011;37382;45.192;9.790;2023-04-24T00:09:43;8.80;;;4.50;;
51298;SDS011;37382;45.192;9.790;2023-04-24T00:12:11;6.97;;;4.38;;
51298;SDS011;37382;45.192;9.790;2023-04-24T00:14:39;9.73;;;4.18;;
51298;SDS011;37382;45.192;9.790;2023-04-24T00:17:06;10.70;;;4.18;;
51298;SDS011;37382;45.192;9.790;2023-04-24T00:19:34;5.93;;;3.88;;
51298;SDS011;37382;45.192;9.790;2023-04-24T00:22:01;5.57;;;3.80;;
51298;SDS011;37382;45.192;9.790;2023-04-24T00:24:29;6.53;;;3.63;;
51298;SDS011;37382;45.192;9.790;2023-04-24T00:26:57;5.38;;;3.95;;
51298;SDS011;37382;45.192;9.790;2023-04-24T00:29:25;12.07;;;4.20;;
51298;SDS011;37382;45.192;9.790;2023-04-24T00:31:52;8.77;;;4.40;;
51298;SDS011;37382;45.192;9.790;2023-04-24T00:34:20;9.18;;;4.65;;
51298;SDS011;37382;45.192;9.790;2023-04-24T00:36:47;9.75;;;4.80;;
51298;SDS011;37382;45.192;9.790;2023-04-24T00:39:21;7.97;;;5.05;;
51298;SDS011;37382;45.192;9.790;2023-04-24T00:41:50;7.32;;;4.97;;
51298;SDS011;37382;45.192;9.790;2023-04-24T00:44:18;6.63;;;4.28;;
51298;SDS011;37382;45.192;9.790;2023-04-24T00:46:45;7.07;;;4.68;;
51298;SDS011;37382;45.192;9.790;2023-04-24T00:49:14;14.45;;;5.28;;
51298;SDS011;37382;45.192;9.790;2023-04-24T00:51:41;7.25;;;4.68;;
51298;SDS011;37382;45.192;9.790;2023-04-24T00:54:12;7.80;;;4.95;;
51298;SDS011;37382;45.192;9.790;2023-04-24T00:56:40;5.88;;;4.38;;
51298;SDS011;37382;45.192;9.790;2023-04-24T00:59:10;7.13;;;4.15;;
51298;SDS011;37382;45.192;9.790;2023-04-24T01:01:39;7.63;;;4.80;;
51298;SDS011;37382;45.192;9.790;2023-04-24T01:04:10;10.13;;;5.00;;
51298;SDS011;37382;45.192;9.790;2023-04-24T01:06:39;5.40;;;4.28;;
51298;SDS011;37382;45.192;9.790;2023-04-24T01:09:08;7.88;;;4.43;;
51298;SDS011;37382;45.192;9.790;2023-04-24T01:11:37;5.93;;;4.35;;
51298;SDS011;37382;45.192;9.790;2023-04-24T01:14:04;5.57;;;5.00;;
51298;SDS011;37382;45.192;9.790;2023-04-24T01:16:33;7.57;;;5.07;;
51298;SDS011;37382;45.192;9.790;2023-04-24T01:19:01;8.85;;;5.13;;
51298;SDS011;37382;45.192;9.790;2023-04-24T01:21:29;8.43;;;4.57;;
51298;SDS011;37382;45.192;9.790;2023-04-24T01:23:58;10.55;;;5.35;;
51298;SDS011;37382;45.192;9.790;2023-04-24T01:26:26;8.63;;;4.82;;
51298;SDS011;37382;45.192;9.790;2023-04-24T01:28:53;7.25;;;4.57;;
51298;SDS011;37382;45.192;9.790;2023-04-24T01:31:21;9.65;;;4.72;;
51298;SDS011;37382;45.192;9.790;2023-04-24T01:33:49;6.97;;;4.93;;
51298;SDS011;37382;45.192;9.790;2023-04-24T01:36:17;8.60;;;5.13;;
51298;SDS011;37382;45.192;9.790;2023-04-24T01:38:45;7.13;;;5.30;;
51298;SDS011;37382;45.192;9.790;2023-04-24T01:41:13;8.02;;;4.93;;
51298;SDS011;37382;45.192;9.790;2023-04-24T01:43:41;8.27;;;5.35;;
51298;SDS011;37382;45.192;9.790;2023-04-24T01:46:09;7.47;;;5.43;;
51298;SDS011;37382;45.192;9.790;2023-04-24T01:48:36;8.77;;;5.60;;
51298;SDS011;37382;45.192;9.790;2023-04-24T01:51:04;11.68;;;5.38;;
51298;SDS011;37382;45.192;9.790;2023-04-24T01:53:32;10.15;;;5.65;;
51298;SDS011;37382;45.192;9.790;2023-04-24T01:56:00;7.57;;;4.97;;
51298;SDS011;37382;45.192;9.790;2023-04-24T01:58:29;12.02;;;5.47;;
51298;SDS011;37382;45.192;9.790;2023-04-24T02:00:57;7.00;;;4.75;;
51298;SDS011;37382;45.192;9.790;2023-04-24T02:03:26;11.40;;;5.07;;
51298;SDS011;37382;45.192;9.790;2023-04-24T02:05:55;7.95;;;4.80;;
51298;SDS011;37382;45.192;9.790;2023-04-24T02:08:24;9.45;;;4.70;;
51298;SDS011;37382;45.192;9.790;2023-04-24T02:10:52;9.40;;;5.00;;
51298;SDS011;37382;45.192;9.790;2023-04-24T02:13:19;8.15;;;5.30;;
51298;SDS011;37382;45.192;9.790;2023-04-24T02:15:46;9.02;;;5.38;;
51298;SDS011;37382;45.192;9.790;2023-04-24T02:18:14;7.32;;;4.85;;
51298;SDS011;37382;45.192;9.790;2023-04-24T02:20:42;7.95;;;5.10;;
51298;SDS011;37382;45.192;9.790;2023-04-24T02:23:10;9.10;;;5.85;;
51298;SDS011;37382;45.192;9.790;2023-04-24T02:25:38;9.35;;;5.60;;
51298;SDS011;37382;45.192;9.790;2023-04-24T02:28:05;12.23;;;5.50;;
51298;SDS011;37382;45.192;9.790;2023-04-24T02:30:33;19.95;;;5.40;;
51298;SDS011;37382;45.192;9.790;2023-04-24T02:33:01;7.55;;;5.55;;
51298;SDS011;37382;45.192;9.790;2023-04-24T02:35:30;11.55;;;5.68;;
51298;SDS011;37382;45.192;9.790;2023-04-24T02:37:58;10.63;;;6.43;;
51298;SDS011;37382;45.192;9.790;2023-04-24T02:40:25;10.07;;;5.70;;
51298;SDS011;37382;45.192;9.790;2023-04-24T02:42:53;12.70;;;5.88;;
51298;SDS011;37382;45.192;9.790;2023-04-24T02:45:20;9.50;;;6.18;;
51298;SDS011;37382;45.192;9.790;2023-04-24T02:47:48;15.35;;;6.65;;
51298;SDS011;37382;45.192;9.790;2023-04-24T02:50:15;7.45;;;5.95;;
51298;SDS011;37382;45.192;9.790;2023-04-24T02:52:43;13.82;;;6.53;;
51298;SDS011;37382;45.192;9.790;2023-04-24T02:55:10;10.43;;;6.80;;
51298;SDS011;37382;45.192;9.790;2023-04-24T02:57:38;10.98;;;6.85;;
51298;SDS011;37382;45.192;9.790;2023-04-24T03:00:06;11.68;;;6.57;;
51298;SDS011;37382;45.192;9.790;2023-04-24T03:02:34;11.25;;;7.05;;
51298;SDS011;37382;45.192;9.790;2023-04-24T03:05:01;10.43;;;7.07;;
51298;SDS011;37382;45.192;9.790;2023-04-24T03:07:30;14.05;;;7.05;;
51298;SDS011;37382;45.192;9.790;2023-04-24T03:09:59;12.02;;;7.13;;
51298;SDS011;37382;45.192;9.790;2023-04-24T03:12:27;12.23;;;7.13;;
51298;SDS011;37382;45.192;9.790;2023-04-24T03:14:54;17.15;;;7.07;;
51298;SDS011;37382;45.192;9.790;2023-04-24T03:17:22;18.98;;;7.18;;
51298;SDS011;37382;45.192;9.790;2023-04-24T03:19:50;12.20;;;7.35;;
51298;SDS011;37382;45.192;9.790;2023-04-24T03:22:17;10.57;;;7.78;;
51298;SDS011;37382;45.192;9.790;2023-04-24T03:24:45;12.23;;;8.10;;
51298;SDS011;37382;45.192;9.790;2023-04-24T03:27:16;10.43;;;7.68;;
51298;SDS011;37382;45.192;9.790;2023-04-24T03:29:55;14.18;;;6.80;;
51298;SDS011;37382;45.192;9.790;2023-04-24T03:32:34;10.77;;;7.68;;
51298;SDS011;37382;45.192;9.790;2023-04-24T03:35:02;9.20;;;7.30;;
51298;SDS011;37382;45.192;9.790;2023-04-24T03:37:31;11.65;;;8.02;;
51298;SDS011;37382;45.192;9.790;2023-04-24T03:40:12;8.90;;;7.47;;
51298;SDS011;37382;45.192;9.790;2023-04-24T03:42:40;9.80;;;7.70;;
51298;SDS011;37382;45.192;9.790;2023-04-24T03:45:08;11.27;;;7.93;;
51298;SDS011;37382;45.192;9.790;2023-04-24T03:47:39;9.15;;;7.60;;
51298;SDS011;37382;45.192;9.790;2023-04-24T03:50:07;14.10;;;7.32;;
51298;SDS011;37382;45.192;9.790;2023-04-24T03:52:38;9.30;;;7.55;;
51298;SDS011;37382;45.192;9.790;2023-04-24T03:55:06;9.23;;;7.05;;
51298;SDS011;37382;45.192;9.790;2023-04-24T03:57:41;10.10;;;7.22;;
51298;SDS011;37382;45.192;9.790;2023-04-24T04:00:18;9.80;;;7.50;;
51298;SDS011;37382;45.192;9.790;2023-04-24T04:02:53;9.85;;;7.47;;
51298;SDS011;37382;45.192;9.790;2023-04-24T04:05:21;13.63;;;7.70;;
51298;SDS011;37382;45.192;9.790;2023-04-24T04:07:49;12.27;;;8.32;;
51298;SDS011;37382;45.192;9.790;2023-04-24T04:10:17;10.32;;;8.05;;
51298;SDS011;37382;45.192;9.790;2023-04-24T04:12:44;11.30;;;7.80;;
51298;SDS011;37382;45.192;9.790;2023-04-24T04:15:12;11.85;;;8.75;;
51298;SDS011;37382;45.192;9.790;2023-04-24T04:17:40;13.00;;;8.07;;
51298;SDS011;37382;45.192;9.790;2023-04-24T04:20:08;11.68;;;8.20;;
51298;SDS011;37382;45.192;9.790;2023-04-24T04:22:38;11.80;;;8.85;;
51298;SDS011;37382;45.192;9.790;2023-04-24T04:25:12;14.38;;;8.27;;
51298;SDS011;37382;45.192;9.790;2023-04-24T04:27:42;10.13;;;8.05;;
51298;SDS011;37382;45.192;9.790;2023-04-24T04:30:12;15.00;;;7.82;;
51298;SDS011;37382;45.192;9.790;2023-04-24T04:32:52;11.13;;;8.70;;
51298;SDS011;37382;45.192;9.790;2023-04-24T04:35:21;10.35;;;8.40;;
51298;SDS011;37382;45.192;9.790;2023-04-24T04:37:51;15.48;;;8.65;;
51298;SDS011;37382;45.192;9.790;2023-04-24T04:40:37;11.98;;;8.52;;
51298;SDS011;37382;45.192;9.790;2023-04-24T04:43:06;12.15;;;8.80;;
51298;SDS011;37382;45.192;9.790;2023-04-24T04:45:43;13.20;;;8.98;;
51298;SDS011;37382;45.192;9.790;2023-04-24T04:48:41;15.52;;;8.48;;
51298;SDS011;37382;45.192;9.790;2023-04-24T04:51:09;12.23;;;9.27;;
51298;SDS011;37382;45.192;9.790;2023-04-24T04:53:38;15.63;;;10.02;;
51298;SDS011;37382;45.192;9.790;2023-04-24T04:56:07;18.42;;;10.27;;
51298;SDS011;37382;45.192;9.790;2023-04-24T04:58:45;15.70;;;9.90;;
51298;SDS011;37382;45.192;9.790;2023-04-24T05:01:16;13.35;;;10.40;;
51298;SDS011;37382;45.192;9.790;2023-04-24T05:03:46;10.63;;;8.57;;
51298;SDS011;37382;45.192;9.790;2023-04-24T05:06:16;15.50;;;8.73;;
51298;SDS011;37382;45.192;9.790;2023-04-24T05:08:45;13.40;;;9.85;;
51298;SDS011;37382;45.192;9.790;2023-04-24T05:11:26;14.00;;;8.73;;
51298;SDS011;37382;45.192;9.790;2023-04-24T05:13:56;15.48;;;10.48;;
51298;SDS011;37382;45.192;9.790;2023-04-24T05:16:32;13.68;;;9.80;;
51298;SDS011;37382;45.192;9.790;2023-04-24T05:19:00;15.77;;;9.70;;
51298;SDS011;37382;45.192;9.790;2023-04-24T05:21:33;14.95;;;9.38;;
51298;SDS011;37382;45.192;9.790;2023-04-24T05:24:02;13.68;;;9.70;;
51298;SDS011;37382;45.192;9.790;2023-04-24T05:26:52;12.43;;;10.10;;
51298;SDS011;37382;45.192;9.790;2023-04-24T05:29:25;15.95;;;9.90;;
51298;SDS011;37382;45.192;9.790;2023-04-24T05:31:53;10.90;;;9.57;;
51298;SDS011;37382;45.192;9.790;2023-04-24T05:34:24;11.23;;;9.50;;
51298;SDS011;37382;45.192;9.790;2023-04-24T05:36:55;11.65;;;9.52;;
51298;SDS011;37382;45.192;9.790;2023-04-24T05:39:23;14.25;;;9.73;;
51298;SDS011;37382;45.192;9.790;2023-04-24T05:41:53;17.63;;;9.98;;
51298;SDS011;37382;45.192;9.790;2023-04-24T05:44:20;10.80;;;9.70;;
51298;SDS011;37382;45.192;9.790;2023-04-24T05:46:48;13.05;;;9.70;;
51298;SDS011;37382;45.192;9.790;2023-04-24T05:49:16;11.98;;;9.52;;
51298;SDS011;37382;45.192;9.790;2023-04-24T05:51:45;17.27;;;9.35;;
51298;SDS011;37382;45.192;9.790;2023-04-24T05:54:13;13.25;;;9.70;;
51298;SDS011;37382;45.192;9.790;2023-04-24T05:56:41;12.27;;;9.73;;
51298;SDS011;37382;45.192;9.790;2023-04-24T06:01:40;15.00;;;10.10;;
51298;SDS011;37382;45.192;9.790;2023-04-24T06:04:14;14.02;;;10.43;;
51298;SDS011;37382;45.192;9.790;2023-04-24T06:06:42;13.73;;;10.07;;
51298;SDS011;37382;45.192;9.790;2023-04-24T06:09:10;13.45;;;10.27;;
51298;SDS011;37382;45.192;9.790;2023-04-24T06:11:37;21.80;;;10.60;;
51298;SDS011;37382;45.192;9.790;2023-04-24T06:14:08;13.00;;;11.15;;
51298;SDS011;37382;45.192;9.790;2023-04-24T06:16:40;15.95;;;11.75;;
51298;SDS011;37382;45.192;9.790;2023-04-24T06:19:25;15.77;;;11.07;;
51298;SDS011;37382;45.192;9.790;2023-04-24T06:21:54;13.57;;;10.90;;
51298;SDS011;37382;45.192;9.790;2023-04-24T06:24:22;15.95;;;11.48;;
51298;SDS011;37382;45.192;9.790;2023-04-24T06:26:49;12.73;;;11.27;;
51298;SDS011;37382;45.192;9.790;2023-04-24T06:29:16;13.30;;;10.88;;
51298;SDS011;37382;45.192;9.790;2023-04-24T06:31:44;15.80;;;10.75;;
51298;SDS011;37382;45.192;9.790;2023-04-24T06:34:12;18.75;;;11.88;;
51298;SDS011;37382;45.192;9.790;2023-04-24T06:36:40;13.80;;;11.18;;
51298;SDS011;37382;45.192;9.790;2023-04-24T06:39:08;16.45;;;11.70;;
51298;SDS011;37382;45.192;9.790;2023-04-24T06:41:36;16.20;;;11.27;;
51298;SDS011;37382;45.192;9.790;2023-04-24T06:44:04;17.90;;;11.75;;
51298;SDS011;37382;45.192;9.790;2023-04-24T06:46:32;16.67;;;11.13;;
51298;SDS011;37382;45.192;9.790;2023-04-24T06:49:00;15.40;;;12.70;;
51298;SDS011;37382;45.192;9.790;2023-04-24T06:51:27;16.52;;;12.57;;
51298;SDS011;37382;45.192;9.790;2023-04-24T06:53:55;19.98;;;12.80;;
51298;SDS011;37382;45.192;9.790;2023-04-24T06:56:25;15.45;;;12.07;;
51298;SDS011;37382;45.192;9.790;2023-04-24T06:58:53;16.88;;;12.52;;
51298;SDS011;37382;45.192;9.790;2023-04-24T07:01:21;18.52;;;12.60;;
51298;SDS011;37382;45.192;9.790;2023-04-24T07:03:49;15.57;;;11.55;;
51298;SDS011;37382;45.192;9.790;2023-04-24T07:06:16;18.83;;;13.00;;
51298;SDS011;37382;45.192;9.790;2023-04-24T07:08:45;14.48;;;12.45;;
51298;SDS011;37382;45.192;9.790;2023-04-24T07:11:13;16.50;;;12.15;;
51298;SDS011;37382;45.192;9.790;2023-04-24T07:13:41;19.00;;;13.35;;
51298;SDS011;37382;45.192;9.790;2023-04-24T07:16:11;14.73;;;10.88;;
51298;SDS011;37382;45.192;9.790;2023-04-24T07:18:38;15.13;;;11.68;;
51298;SDS011;37382;45.192;9.790;2023-04-24T07:21:06;22.88;;;12.82;;
51298;SDS011;37382;45.192;9.790;2023-04-24T07:23:34;23.77;;;12.43;;
51298;SDS011;37382;45.192;9.790;2023-04-24T07:26:02;18.50;;;11.90;;
51298;SDS011;37382;45.192;9.790;2023-04-24T07:28:30;15.98;;;12.88;;
51298;SDS011;37382;45.192;9.790;2023-04-24T07:30:58;24.85;;;13.05;;
51298;SDS011;37382;45.192;9.790;2023-04-24T07:33:26;15.57;;;13.05;;
51298;SDS011;37382;45.192;9.790;2023-04-24T07:35:54;17.35;;;13.10;;
51298;SDS011;37382;45.192;9.790;2023-04-24T07:38:22;16.33;;;14.18;;
51298;SDS011;37382;45.192;9.790;2023-04-24T07:40:52;19.27;;;14.00;;
51298;SDS011;37382;45.192;9.790;2023-04-24T07:43:20;17.63;;;13.30;;
51298;SDS011;37382;45.192;9.790;2023-04-24T07:45:48;17.38;;;13.25;;
51298;SDS011;37382;45.192;9.790;2023-04-24T07:48:15;18.55;;;14.07;;
51298;SDS011;37382;45.192;9.790;2023-04-24T07:50:44;20.70;;;15.07;;
51298;SDS011;37382;45.192;9.790;2023-04-24T07:53:12;19.08;;;14.05;;
51298;SDS011;37382;45.192;9.790;2023-04-24T07:55:40;19.83;;;14.13;;
51298;SDS011;37382;45.192;9.790;2023-04-24T07:58:08;20.25;;;14.85;;
51298;SDS011;37382;45.192;9.790;2023-04-24T08:00:35;21.35;;;12.75;;
51298;SDS011;37382;45.192;9.790;2023-04-24T08:03:03;16.25;;;11.93;;
51298;SDS011;37382;45.192;9.790;2023-04-24T08:05:30;16.00;;;11.38;;
51298;SDS011;37382;45.192;9.790;2023-04-24T08:07:58;16.90;;;11.05;;
51298;SDS011;37382;45.192;9.790;2023-04-24T08:10:26;15.38;;;11.32;;
51298;SDS011;37382;45.192;9.790;2023-04-24T08:12:53;13.05;;;11.20;;
51298;SDS011;37382;45.192;9.790;2023-04-24T08:15:22;14.55;;;10.88;;
51298;SDS011;37382;45.192;9.790;2023-04-24T08:17:49;13.95;;;10.55;;
51298;SDS011;37382;45.192;9.790;2023-04-24T08:20:17;13.98;;;10.30;;
51298;SDS011;37382;45.192;9.790;2023-04-24T08:22:44;12.85;;;10.90;;
51298;SDS011;37382;45.192;9.790;2023-04-24T08:25:14;13.32;;;9.60;;
51298;SDS011;37382;45.192;9.790;2023-04-24T08:27:41;18.40;;;10.27;;
51298;SDS011;37382;45.192;9.790;2023-04-24T08:30:09;11.00;;;9.48;;
51298;SDS011;37382;45.192;9.790;2023-04-24T08:32:37;11.65;;;9.57;;
51298;SDS011;37382;45.192;9.790;2023-04-24T08:35:04;13.52;;;9.73;;
51298;SDS011;37382;45.192;9.790;2023-04-24T08:37:33;11.15;;;9.55;;
51298;SDS011;37382;45.192;9.790;2023-04-24T08:40:03;14.65;;;9.45;;
51298;SDS011;37382;45.192;9.790;2023-04-24T08:42:37;10.73;;;9.32;;
51298;SDS011;37382;45.192;9.790;2023-04-24T08:45:05;10.93;;;9.60;;
51298;SDS011;37382;45.192;9.790;2023-04-24T08:47:34;14.45;;;9.52;;
51298;SDS011;37382;45.192;9.790;2023-04-24T08:50:03;12.38;;;9.57;;
51298;SDS011;37382;45.192;9.790;2023-04-24T08:52:33;9.70;;;8.80;;
51298;SDS011;37382;45.192;9.790;2023-04-24T08:55:01;16.08;;;9.32;;
51298;SDS011;37382;45.192;9.790;2023-04-24T08:57:30;15.60;;;9.80;;
51298;SDS011;37382;45.192;9.790;2023-04-24T08:59:59;12.32;;;9.43;;
51298;SDS011;37382;45.192;9.790;2023-04-24T09:02:27;12.43;;;9.95;;
51298;SDS011;37382;45.192;9.790;2023-04-24T09:04:57;11.63;;;9.10;;
51298;SDS011;37382;45.192;9.790;2023-04-24T09:07:24;9.35;;;8.45;;
51298;SDS011;37382;45.192;9.790;2023-04-24T09:09:54;9.93;;;8.88;;
51298;SDS011;37382;45.192;9.790;2023-04-24T09:12:22;12.07;;;8.63;;
51298;SDS011;37382;45.192;9.790;2023-04-24T09:14:50;11.75;;;9.45;;
51298;SDS011;37382;45.192;9.790;2023-04-24T09:17:18;9.18;;;8.27;;
51298;SDS011;37382;45.192;9.790;2023-04-24T09:19:46;9.25;;;8.27;;
51298;SDS011;37382;45.192;9.790;2023-04-24T09:22:13;9.00;;;6.70;;
51298;SDS011;37382;45.192;9.790;2023-04-24T09:24:42;8.68;;;7.80;;
51298;SDS011;37382;45.192;9.790;2023-04-24T09:27:10;12.68;;;8.40;;
51298;SDS011;37382;45.192;9.790;2023-04-24T09:29:53;10.32;;;8.57;;
51298;SDS011;37382;45.192;9.790;2023-04-24T09:32:22;9.13;;;7.47;;
51298;SDS011;37382;45.192;9.790;2023-04-24T09:35:30;10.52;;;8.48;;
51298;SDS011;37382;45.192;9.790;2023-04-24T09:37:51;9.02;;;7.30;;
51298;SDS011;37382;45.192;9.790;2023-04-24T09:40:19;9.18;;;7.68;;
51298;SDS011;37382;45.192;9.790;2023-04-24T09:42:53;7.80;;;6.70;;
51298;SDS011;37382;45.192;9.790;2023-04-24T09:45:27;9.02;;;7.20;;
51298;SDS011;37382;45.192;9.790;2023-04-24T09:48:06;8.20;;;7.22;;
51298;SDS011;37382;45.192;9.790;2023-04-24T09:50:37;9.68;;;6.22;;
51298;SDS011;37382;45.192;9.790;2023-04-24T09:53:05;8.40;;;6.97;;
51298;SDS011;37382;45.192;9.790;2023-04-24T09:55:39;8.13;;;7.33;;
51298;SDS011;37382;45.192;9.790;2023-04-24T09:58:08;10.13;;;9.02;;
51298;SDS011;37382;45.192;9.790;2023-04-24T10:00:35;10.50;;;7.60;;
51298;SDS011;37382;45.192;9.790;2023-04-24T10:03:03;9.00;;;7.20;;
51298;SDS011;37382;45.192;9.790;2023-04-24T10:05:34;8.20;;;6.97;;
51298;SDS011;37382;45.192;9.790;2023-04-24T10:08:03;8.10;;;7.10;;
51298;SDS011;37382;45.192;9.790;2023-04-24T10:10:33;8.77;;;6.82;;
51298;SDS011;37382;45.192;9.790;2023-04-24T10:13:05;10.57;;;6.85;;
51298;SDS011;37382;45.192;9.790;2023-04-24T10:15:34;7.97;;;6.80;;
51298;SDS011;37382;45.192;9.790;2023-04-24T10:18:02;11.73;;;6.97;;
51298;SDS011;37382;45.192;9.790;2023-04-24T10:20:35;8.43;;;6.35;;
51298;SDS011;37382;45.192;9.790;2023-04-24T10:23:04;11.52;;;7.93;;
51298;SDS011;37382;45.192;9.790;2023-04-24T10:25:33;10.43;;;7.60;;
51298;SDS011;37382;45.192;9.790;2023-04-24T10:28:02;9.73;;;6.53;;
51298;SDS011;37382;45.192;9.790;2023-04-24T10:30:31;9.30;;;7.80;;
51298;SDS011;37382;45.192;9.790;2023-04-24T10:33:06;7.95;;;7.03;;
51298;SDS011;37382;45.192;9.790;2023-04-24T10:35:39;10.13;;;7.32;;
51298;SDS011;37382;45.192;9.790;2023-04-24T10:38:12;7.55;;;6.30;;
51298;SDS011;37382;45.192;9.790;2023-04-24T10:40:42;13.35;;;7.10;;
51298;SDS011;37382;45.192;9.790;2023-04-24T10:43:11;7.60;;;6.88;;
51298;SDS011;37382;45.192;9.790;2023-04-24T10:48:53;8.00;;;6.22;;
51298;SDS011;37382;45.192;9.790;2023-04-24T10:51:22;10.25;;;7.13;;
51298;SDS011;37382;45.192;9.790;2023-04-24T10:53:51;8.52;;;6.45;;
51298;SDS011;37382;45.192;9.790;2023-04-24T10:56:19;8.90;;;6.43;;
51298;SDS011;37382;45.192;9.790;2023-04-24T10:58:50;8.77;;;5.93;;
51298;SDS011;37382;45.192;9.790;2023-04-24T11:01:32;7.23;;;6.53;;
51298;SDS011;37382;45.192;9.790;2023-04-24T11:04:01;9.10;;;6.10;;
51298;SDS011;37382;45.192;9.790;2023-04-24T11:06:34;6.93;;;6.20;;
51298;SDS011;37382;45.192;9.790;2023-04-24T11:14:04;10.23;;;6.40;;
51298;SDS011;37382;45.192;9.790;2023-04-24T11:16:38;9.52;;;6.55;;
51298;SDS011;37382;45.192;9.790;2023-04-24T11:21:47;7.30;;;6.25;;
51298;SDS011;37382;45.192;9.790;2023-04-24T11:26:51;8.38;;;5.93;;
51298;SDS011;37382;45.192;9.790;2023-04-24T11:29:20;8.07;;;5.80;;
51298;SDS011;37382;45.192;9.790;2023-04-24T11:31:50;6.65;;;5.50;;
51298;SDS011;37382;45.192;9.790;2023-04-24T11:34:18;7.30;;;5.40;;
51298;SDS011;37382;45.192;9.790;2023-04-24T11:36:46;8.43;;;5.07;;
51298;SDS011;37382;45.192;9.790;2023-04-24T11:39:16;6.60;;;5.53;;
51298;SDS011;37382;45.192;9.790;2023-04-24T11:41:44;7.28;;;5.53;;
51298;SDS011;37382;45.192;9.790;2023-04-24T11:44:12;8.85;;;6.20;;
51298;SDS011;37382;45.192;9.790;2023-04-24T11:46:41;6.20;;;5.28;;
51298;SDS011;37382;45.192;9.790;2023-04-24T11:49:10;5.88;;;4.22;;
51298;SDS011;37382;45.192;9.790;2023-04-24T11:51:39;4.93;;;4.47;;
51298;SDS011;37382;45.192;9.790;2023-04-24T11:54:19;6.93;;;4.60;;
51298;SDS011;37382;45.192;9.790;2023-04-24T11:56:47;5.32;;;4.15;;
51298;SDS011;37382;45.192;9.790;2023-04-24T11:59:16;10.82;;;3.05;;
51298;SDS011;37382;45.192;9.790;2023-04-24T12:01:44;3.63;;;2.83;;
51298;SDS011;37382;45.192;9.790;2023-04-24T12:04:13;5.95;;;2.53;;
51298;SDS011;37382;45.192;9.790;2023-04-24T12:07:03;3.05;;;2.53;;
51298;SDS011;37382;45.192;9.790;2023-04-24T12:09:46;5.13;;;3.28;;
51298;SDS011;37382;45.192;9.790;2023-04-24T12:12:18;4.22;;;2.75;;
51298;SDS011;37382;45.192;9.790;2023-04-24T12:14:50;4.32;;;2.85;;
51298;SDS011;37382;45.192;9.790;2023-04-24T12:17:31;4.22;;;3.10;;
51298;SDS011;37382;45.192;9.790;2023-04-24T12:20:01;3.50;;;2.97;;
51298;SDS011;37382;45.192;9.790;2023-04-24T12:22:43;4.75;;;2.60;;
51298;SDS011;37382;45.192;9.790;2023-04-24T12:25:23;7.88;;;1.67;;
51298;SDS011;37382;45.192;9.790;2023-04-24T12:30:34;3.15;;;1.80;;
51298;SDS011;37382;45.192;9.790;2023-04-24T12:33:06;4.15;;;2.20;;
51298;SDS011;37382;45.192;9.790;2023-04-24T12:35:34;2.72;;;2.08;;
51298;SDS011;37382;45.192;9.790;2023-04-24T12:38:10;3.42;;;2.30;;
51298;SDS011;37382;45.192;9.790;2023-04-24T12:40:40;1.65;;;1.30;;
51298;SDS011;37382;45.192;9.790;2023-04-24T12:43:15;5.32;;;1.42;;
51298;SDS011;37382;45.192;9.790;2023-04-24T12:45:44;2.58;;;1.20;;
51298;SDS011;37382;45.192;9.790;2023-04-24T12:48:12;4.03;;;0.95;;
51298;SDS011;37382;45.192;9.790;2023-04-24T12:50:43;2.38;;;1.70;;
51298;SDS011;37382;45.192;9.790;2023-04-24T12:53:14;2.78;;;1.20;;
51298;SDS011;37382;45.192;9.790;2023-04-24T12:55:43;3.55;;;1.25;;
51298;SDS011;37382;45.192;9.790;2023-04-24T12:58:12;1.92;;;1.10;;
51298;SDS011;37382;45.192;9.790;2023-04-24T13:00:40;5.18;;;0.95;;
51298;SDS011;37382;45.192;9.790;2023-04-24T13:03:10;3.67;;;1.23;;
51298;SDS011;37382;45.192;9.790;2023-04-24T13:05:39;0.50;;;0.40;;
51298;SDS011;37382;45.192;9.790;2023-04-24T13:08:07;3.80;;;0.47;;
51298;SDS011;37382;45.192;9.790;2023-04-24T13:10:35;0.50;;;0.50;;
51298;SDS011;37382;45.192;9.790;2023-04-24T13:13:03;0.55;;;0.30;;
51298;SDS011;37382;45.192;9.790;2023-04-24T13:15:31;0.60;;;0.30;;
51298;SDS011;37382;45.192;9.790;2023-04-24T13:17:58;1.25;;;0.52;;
51298;SDS011;37382;45.192;9.790;2023-04-24T13:20:25;0.95;;;0.40;;
51298;SDS011;37382;45.192;9.790;2023-04-24T13:22:53;0.50;;;0.30;;
51298;SDS011;37382;45.192;9.790;2023-04-24T13:25:21;0.40;;;0.22;;
51298;SDS011;37382;45.192;9.790;2023-04-24T13:27:50;0.50;;;0.38;;
51298;SDS011;37382;45.192;9.790;2023-04-24T13:30:18;1.30;;;0.52;;
51298;SDS011;37382;45.192;9.790;2023-04-24T13:32:46;0.50;;;0.40;;
51298;SDS011;37382;45.192;9.790;2023-04-24T13:35:14;2.45;;;0.40;;
51298;SDS011;37382;45.192;9.790;2023-04-24T13:37:41;0.50;;;0.40;;
51298;SDS011;37382;45.192;9.790;2023-04-24T13:40:08;5.68;;;0.57;;
51298;SDS011;37382;45.192;9.790;2023-04-24T13:42:36;0.45;;;0.40;;
51298;SDS011;37382;45.192;9.790;2023-04-24T13:45:04;0.90;;;0.30;;
51298;SDS011;37382;45.192;9.790;2023-04-24T13:47:50;0.88;;;0.30;;
51298;SDS011;37382;45.192;9.790;2023-04-24T13:50:19;1.15;;;0.30;;
51298;SDS011;37382;45.192;9.790;2023-04-24T13:52:47;0.63;;;0.28;;
51298;SDS011;37382;45.192;9.790;2023-04-24T13:55:14;0.40;;;0.20;;
51298;SDS011;37382;45.192;9.790;2023-04-24T13:57:42;0.45;;;0.30;;
51298;SDS011;37382;45.192;9.790;2023-04-24T14:00:09;0.65;;;0.30;;
51298;SDS011;37382;45.192;9.790;2023-04-24T14:02:38;0.75;;;0.32;;
51298;SDS011;37382;45.192;9.790;2023-04-24T14:05:06;1.05;;;0.28;;
51298;SDS011;37382;45.192;9.790;2023-04-24T14:07:34;0.65;;;0.20;;
51298;SDS011;37382;45.192;9.790;2023-04-24T14:10:02;0.30;;;0.20;;
51298;SDS011;37382;45.192;9.790;2023-04-24T14:12:30;3.03;;;0.30;;
51298;SDS011;37382;45.192;9.790;2023-04-24T14:14:58;0.73;;;0.43;;
51298;SDS011;37382;45.192;9.790;2023-04-24T14:17:25;0.20;;;0.20;;
51298;SDS011;37382;45.192;9.790;2023-04-24T14:19:53;1.02;;;0.40;;
51298;SDS011;37382;45.192;9.790;2023-04-24T14:22:23;1.10;;;0.20;;
51298;SDS011;37382;45.192;9.790;2023-04-24T14:24:50;2.20;;;0.30;;
51298;SDS011;37382;45.192;9.790;2023-04-24T14:27:18;1.42;;;0.30;;
51298;SDS011;37382;45.192;9.790;2023-04-24T14:29:46;0.98;;;0.47;;
51298;SDS011;37382;45.192;9.790;2023-04-24T14:32:14;2.65;;;0.40;;
51298;SDS011;37382;45.192;9.790;2023-04-24T14:34:42;1.17;;;0.40;;
51298;SDS011;37382;45.192;9.790;2023-04-24T14:37:10;0.47;;;0.30;;
51298;SDS011;37382;45.192;9.790;2023-04-24T14:39:37;1.20;;;0.30;;
51298;SDS011;37382;45.192;9.790;2023-04-24T14:42:04;1.00;;;0.28;;
51298;SDS011;37382;45.192;9.790;2023-04-24T14:44:32;0.40;;;0.30;;
51298;SDS011;37382;45.192;9.790;2023-04-24T14:47:00;0.95;;;0.43;;
51298;SDS011;37382;45.192;9.790;2023-04-24T14:49:27;2.35;;;0.38;;
51298;SDS011;37382;45.192;9.790;2023-04-24T14:51:55;3.70;;;0.63;;
51298;SDS011;37382;45.192;9.790;2023-04-24T14:54:22;1.25;;;0.20;;
51298;SDS011;37382;45.192;9.790;2023-04-24T14:56:50;0.95;;;0.43;;
51298;SDS011;37382;45.192;9.790;2023-04-24T14:59:18;1.90;;;0.80;;
51298;SDS011;37382;45.192;9.790;2023-04-24T15:01:46;3.05;;;0.50;;
51298;SDS011;37382;45.192;9.790;2023-04-24T15:04:14;3.78;;;0.40;;
51298;SDS011;37382;45.192;9.790;2023-04-24T15:06:42;2.28;;;0.20;;
51298;SDS011;37382;45.192;9.790;2023-04-24T15:09:10;4.10;;;0.40;;
51298;SDS011;37382;45.192;9.790;2023-04-24T15:11:38;0.75;;;0.30;;